This is the latest recevied weather packets stored in our database for station/object N0RRC. If no packets are shown the sender has not sent any weather packets the latest 10 day(s).
| Time | Temp. | Humidity | Pressure | Rain* | Wind** | Luminosity | Snow |
|---|---|---|---|---|---|---|---|
| 1778032616 | 8.89° C | 50% | 1009.1 hPa | 0 mm | - | 0 W/m² | - |
| 1778029617 | 10° C | 46% | 1008.3 hPa | 0 mm | - | 0 W/m² | - |
| 1778026017 | 10.56° C | 43% | 1007.6 hPa | 0 mm | - | 55 W/m² | - |
| 1778017016 | 12.78° C | 39% | 1007.1 hPa | 0 mm | - | 631 W/m² | - |
| 1778014017 | 12.22° C | 41% | 1006.9 hPa | 0 mm | - | 506 W/m² | - |
| 1778011015 | 12.78° C | 41% | 1007.3 hPa | 0 mm | - | 865 W/m² | - |
| 1778008036 | 12.22° C | 44% | 1007.4 hPa | 0 mm | - | 894 W/m² | - |
| 1778006815 | 11.67° C | 46% | 1007.2 hPa | 0 mm | - | 888 W/m² | - |
| 1778005657 | 11.67° C | 44% | 1007.1 hPa | 0 mm | - | 714 W/m² | - |
| 1778000817 | 11.11° C | 51% | 1007.1 hPa | 0 mm | - | 1000 W/m² | - |
| 1778000217 | 10.56° C | 51% | 1007 hPa | 0 mm | - | 908 W/m² | - |
| 1777997217 | 10° C | 50% | 1007.1 hPa | 0 mm | - | 869 W/m² | - |
| 1777992438 | 9.44° C | 58% | 1007.2 hPa | 0 mm | - | 841 W/m² | - |
| 1777991817 | 10° C | 58% | 1007.2 hPa | 0 mm | - | 819 W/m² | - |
| 1777988218 | 8.89° C | 57% | 1007.3 hPa | 0 mm | - | 592 W/m² | - |
| 1777986438 | 7.78° C | 60% | 1007.5 hPa | 0 mm | - | 434 W/m² | - |
| 1777984017 | 6.67° C | 67% | 1007.6 hPa | 0 mm | - | 255 W/m² | - |
| 1777983416 | 6.11° C | 66% | 1007.2 hPa | 0 mm | - | 113 W/m² | - |
| 1777980416 | 4.44° C | 68% | 1006.1 hPa | 0 mm | - | 58 W/m² | - |
| 1777975016 | 6.11° C | 60% | 1005.4 hPa | 0 mm | - | 0 W/m² | - |
| 1777973816 | 6.11° C | 60% | 1005.8 hPa | 0 mm | - | 0 W/m² | - |
| 1777967237 | 8.33° C | 55% | 1003.5 hPa | 0 mm | - | 0 W/m² | - |
| 1777964817 | 8.89° C | 59% | 1003.2 hPa | 0 mm | - | 0 W/m² | - |
| 1777964216 | 8.89° C | 58% | 1003 hPa | 0 mm | - | 0 W/m² | - |
| 1777959417 | 11.11° C | 56% | 1002.5 hPa | 0 mm | - | 0 W/m² | - |
* Rain latest hour (hover to see other rain measurements)
** Current wind speed in m/s (hover to see current wind gust speed)